createdAt,value
2017-04-20T00:00:16.303Z,1031.76
2017-04-20T00:02:30.029Z,1031.75
2017-04-20T00:03:10.889Z,1031.73
2017-04-20T00:03:51.765Z,1031.71
2017-04-20T00:04:32.635Z,1031.72
2017-04-20T00:05:13.519Z,1031.68
2017-04-20T00:05:54.409Z,1031.7
2017-04-20T00:06:35.281Z,1031.7
2017-04-20T00:07:16.153Z,1031.66
2017-04-20T00:07:57.020Z,1031.68
2017-04-20T00:08:37.897Z,1031.65
2017-04-20T00:09:18.779Z,1031.66
2017-04-20T00:09:59.656Z,1031.66
2017-04-20T00:10:40.531Z,1031.68
2017-04-20T00:11:21.401Z,1031.63
2017-04-20T00:12:02.268Z,1031.62
2017-04-20T00:12:43.160Z,1031.63
2017-04-20T00:13:24.029Z,1031.59
2017-04-20T00:14:04.905Z,1031.63
2017-04-20T00:14:45.779Z,1031.65
2017-04-20T00:15:26.658Z,1031.64
2017-04-20T00:16:07.524Z,1031.67
2017-04-20T00:16:48.394Z,1031.65
2017-04-20T00:17:29.268Z,1031.63
2017-04-20T00:18:10.140Z,1031.64
2017-04-20T00:18:51.011Z,1031.63
2017-04-20T00:19:31.879Z,1031.65
2017-04-20T00:20:12.754Z,1031.6
2017-04-20T00:20:53.629Z,1031.63
2017-04-20T00:21:34.498Z,1031.69
2017-04-20T00:22:15.384Z,1031.68
2017-04-20T00:22:56.264Z,1031.68
2017-04-20T00:23:37.135Z,1031.68
2017-04-20T00:24:18.019Z,1031.71
2017-04-20T00:24:58.883Z,1031.71
2017-04-20T00:25:39.759Z,1031.7
2017-04-20T00:26:20.644Z,1031.68
2017-04-20T00:27:01.533Z,1031.66
2017-04-20T00:27:42.389Z,1031.68
2017-04-20T00:28:23.265Z,1031.66
2017-04-20T00:29:04.127Z,1031.72
2017-04-20T00:29:44.998Z,1031.7
2017-04-20T00:30:25.871Z,1031.7
2017-04-20T00:31:06.759Z,1031.68
2017-04-20T00:31:47.630Z,1031.7
2017-04-20T00:32:28.520Z,1031.7
2017-04-20T00:33:09.373Z,1031.72
2017-04-20T00:33:50.245Z,1031.68
2017-04-20T00:34:31.115Z,1031.73
2017-04-20T00:35:11.987Z,1031.68
2017-04-20T00:35:52.914Z,1031.69
2017-04-20T00:36:33.787Z,1031.67
2017-04-20T00:37:14.656Z,1031.67
2017-04-20T00:37:55.531Z,1031.68
2017-04-20T00:38:36.400Z,1031.67
2017-04-20T00:39:17.268Z,1031.63
2017-04-20T00:39:58.141Z,1031.61
2017-04-20T00:40:39.024Z,1031.6
2017-04-20T00:41:19.894Z,1031.56
2017-04-20T00:42:00.768Z,1031.6
2017-04-20T00:42:41.638Z,1031.56
2017-04-20T00:43:22.508Z,1031.58
2017-04-20T00:44:03.382Z,1031.55
2017-04-20T00:44:44.243Z,1031.5
2017-04-20T00:45:25.117Z,1031.5
2017-04-20T00:46:05.992Z,1031.5
2017-04-20T00:46:46.866Z,1031.47
2017-04-20T00:47:27.740Z,1031.46
2017-04-20T00:48:08.614Z,1031.45
2017-04-20T00:48:49.487Z,1031.41
2017-04-20T00:49:30.366Z,1031.42
2017-04-20T00:50:11.250Z,1031.4
2017-04-20T00:50:52.152Z,1031.39
2017-04-20T00:51:33.025Z,1031.39
2017-04-20T00:53:31.769Z,1031.36
2017-04-20T00:54:12.870Z,1031.39
2017-04-20T00:54:53.728Z,1031.37
2017-04-20T00:55:34.830Z,1031.37
2017-04-20T00:56:15.527Z,1031.39
2017-04-20T00:56:56.444Z,1031.4
2017-04-20T00:57:37.317Z,1031.43
2017-04-20T00:58:18.188Z,1031.44
2017-04-20T00:58:59.084Z,1031.42
2017-04-20T00:59:39.956Z,1031.45
2017-04-20T01:00:20.831Z,1031.46
2017-04-20T01:01:01.716Z,1031.51
2017-04-20T01:01:42.584Z,1031.45
2017-04-20T01:02:23.461Z,1031.45
2017-04-20T01:03:04.333Z,1031.48
2017-04-20T01:03:45.199Z,1031.47
2017-04-20T01:04:26.133Z,1031.45
2017-04-20T01:05:07.009Z,1031.46
2017-04-20T01:05:47.882Z,1031.46
2017-04-20T01:06:28.752Z,1031.48
2017-04-20T01:07:09.626Z,1031.48
2017-04-20T01:07:50.519Z,1031.53
2017-04-20T01:08:31.385Z,1031.52
2017-04-20T01:09:12.259Z,1031.53
2017-04-20T01:09:53.127Z,1031.48
2017-04-20T01:10:34.003Z,1031.44
2017-04-20T01:11:14.888Z,1031.47
2017-04-20T01:11:55.768Z,1031.45
2017-04-20T01:12:36.643Z,1031.48
2017-04-20T01:13:17.514Z,1031.47
2017-04-20T01:13:58.411Z,1031.47
2017-04-20T01:14:39.279Z,1031.5
2017-04-20T01:15:20.155Z,1031.47
2017-04-20T01:16:01.023Z,1031.53
2017-04-20T01:16:41.901Z,1031.49
2017-04-20T01:17:22.765Z,1031.53
2017-04-20T01:18:03.635Z,1031.55
2017-04-20T01:18:44.501Z,1031.51
2017-04-20T01:19:25.369Z,1031.52
2017-04-20T01:20:06.235Z,1031.56
2017-04-20T01:20:47.108Z,1031.55
2017-04-20T01:21:28.020Z,1031.58
2017-04-20T01:22:08.890Z,1031.57
2017-04-20T01:22:49.794Z,1031.59
2017-04-20T01:23:30.656Z,1031.62
2017-04-20T01:24:11.545Z,1031.62
2017-04-20T01:24:52.423Z,1031.63
2017-04-20T01:25:33.355Z,1031.66
2017-04-20T01:26:14.211Z,1031.66
2017-04-20T01:26:55.076Z,1031.66
2017-04-20T01:27:35.935Z,1031.67
2017-04-20T01:28:16.816Z,1031.66
2017-04-20T01:28:57.685Z,1031.63
2017-04-20T01:29:38.560Z,1031.59
2017-04-20T01:30:19.479Z,1031.62
2017-04-20T01:31:00.344Z,1031.59
2017-04-20T01:31:41.218Z,1031.55
2017-04-20T01:32:22.100Z,1031.54
2017-04-20T01:33:02.974Z,1031.59
2017-04-20T01:33:43.853Z,1031.54
2017-04-20T01:34:24.730Z,1031.55
2017-04-20T01:35:05.616Z,1031.54
2017-04-20T01:35:46.492Z,1031.5
2017-04-20T01:36:27.365Z,1031.52
2017-04-20T01:37:08.241Z,1031.52
2017-04-20T01:37:49.116Z,1031.52
2017-04-20T01:38:29.992Z,1031.48
2017-04-20T01:39:10.875Z,1031.48
2017-04-20T01:39:51.753Z,1031.49
2017-04-20T01:40:32.634Z,1031.54
2017-04-20T01:41:13.551Z,1031.53
2017-04-20T01:41:54.381Z,1031.52
2017-04-20T01:42:35.263Z,1031.53
2017-04-20T01:43:16.125Z,1031.55
2017-04-20T01:43:57.002Z,1031.56
2017-04-20T01:44:37.868Z,1031.6
2017-04-20T01:45:18.746Z,1031.6
2017-04-20T01:45:59.620Z,1031.6
2017-04-20T01:46:40.502Z,1031.65
2017-04-20T01:47:21.393Z,1031.63
2017-04-20T01:48:02.261Z,1031.62
2017-04-20T01:48:43.135Z,1031.63
2017-04-20T01:49:24.001Z,1031.6
2017-04-20T01:50:04.876Z,1031.59
2017-04-20T01:50:45.806Z,1031.57
2017-04-20T01:51:26.672Z,1031.56
2017-04-20T01:52:07.545Z,1031.59
2017-04-20T01:52:48.425Z,1031.54
2017-04-20T01:53:29.296Z,1031.57
2017-04-20T01:54:10.167Z,1031.57
2017-04-20T01:54:51.080Z,1031.57
2017-04-20T01:55:31.936Z,1031.55
2017-04-20T01:56:12.811Z,1031.57
2017-04-20T01:56:53.683Z,1031.6
2017-04-20T01:57:34.550Z,1031.59
2017-04-20T01:58:15.422Z,1031.67
2017-04-20T01:58:56.296Z,1031.68
2017-04-20T01:59:37.181Z,1031.68
2017-04-20T02:00:18.040Z,1031.69
2017-04-20T02:00:58.907Z,1031.69
2017-04-20T02:01:39.780Z,1031.72
2017-04-20T02:02:20.618Z,1031.73
2017-04-20T02:03:01.507Z,1031.78
2017-04-20T02:03:42.385Z,1031.79
2017-04-20T02:04:23.252Z,1031.75
2017-04-20T02:05:04.139Z,1031.79
2017-04-20T02:05:44.973Z,1031.8
2017-04-20T02:06:25.878Z,1031.74
2017-04-20T02:07:07.343Z,1031.79
2017-04-20T02:07:48.218Z,1031.74
2017-04-20T02:08:29.089Z,1031.8
2017-04-20T02:09:09.973Z,1031.81
2017-04-20T02:09:50.908Z,1031.81
2017-04-20T02:10:31.721Z,1031.84
2017-04-20T02:11:12.602Z,1031.84
2017-04-20T02:11:53.465Z,1031.81
2017-04-20T02:12:34.328Z,1031.83
2017-04-20T02:13:15.223Z,1031.83
2017-04-20T02:13:56.080Z,1031.86
2017-04-20T02:14:36.952Z,1031.84
2017-04-20T02:15:17.836Z,1031.88
2017-04-20T02:15:58.697Z,1031.85
2017-04-20T02:16:39.568Z,1031.87
2017-04-20T02:17:20.425Z,1031.85
2017-04-20T02:18:01.324Z,1031.85
2017-04-20T02:18:42.184Z,1031.88
2017-04-20T02:19:23.635Z,1031.86
2017-04-20T02:20:04.513Z,1031.88
2017-04-20T02:20:45.392Z,1031.87
2017-04-20T02:21:26.268Z,1031.84
2017-04-20T02:22:07.169Z,1031.86
2017-04-20T02:22:48.044Z,1031.87
2017-04-20T02:23:28.911Z,1031.89
2017-04-20T02:24:09.778Z,1031.9
2017-04-20T02:24:50.656Z,1031.91
2017-04-20T02:25:31.530Z,1031.86
2017-04-20T02:26:12.413Z,1031.89
2017-04-20T02:26:53.288Z,1031.88
2017-04-20T02:27:34.161Z,1031.9
2017-04-20T02:28:15.022Z,1031.89
2017-04-20T02:28:56.182Z,1031.9
2017-04-20T02:29:37.059Z,1031.94
2017-04-20T02:30:17.926Z,1031.96
2017-04-20T02:30:58.815Z,1031.97
2017-04-20T02:31:39.689Z,1032
2017-04-20T02:32:20.577Z,1031.99
2017-04-20T02:33:01.420Z,1032
2017-04-20T02:33:42.296Z,1031.99
2017-04-20T02:34:23.164Z,1031.97
2017-04-20T02:35:04.034Z,1031.97
2017-04-20T02:35:48.252Z,1031.98
2017-04-20T02:36:29.128Z,1031.96
2017-04-20T02:37:10.005Z,1031.98
2017-04-20T02:37:50.874Z,1031.97
2017-04-20T02:38:31.754Z,1032.01
2017-04-20T02:39:12.631Z,1032
2017-04-20T02:39:53.515Z,1032.02
2017-04-20T02:40:34.402Z,1032.03
2017-04-20T02:41:15.288Z,1032
2017-04-20T02:41:56.164Z,1032.04
2017-04-20T02:42:37.045Z,1032.06
2017-04-20T02:43:17.913Z,1032.05
2017-04-20T02:43:58.794Z,1032.06
2017-04-20T02:44:39.671Z,1032.09
2017-04-20T02:45:20.552Z,1032.06
2017-04-20T02:46:01.434Z,1032.08
2017-04-20T02:46:42.311Z,1032.11
2017-04-20T02:47:23.192Z,1032.1
2017-04-20T02:48:04.062Z,1032.09
2017-04-20T02:48:44.961Z,1032.08
2017-04-20T02:49:25.839Z,1032.1
2017-04-20T02:50:06.719Z,1032.06
2017-04-20T02:50:47.602Z,1032.08
2017-04-20T02:51:30.120Z,1032.09
2017-04-20T02:52:10.997Z,1032.08
2017-04-20T02:52:51.870Z,1032.15
2017-04-20T02:53:32.740Z,1032.17
2017-04-20T02:54:13.621Z,1032.18
2017-04-20T02:54:54.493Z,1032.2
2017-04-20T02:55:35.374Z,1032.17
2017-04-20T02:56:16.256Z,1032.14
2017-04-20T02:56:57.129Z,1032.12
2017-04-20T02:57:38.000Z,1032.13
2017-04-20T02:58:18.888Z,1032.14
2017-04-20T02:58:59.760Z,1032.14
2017-04-20T02:59:40.647Z,1032.13
2017-04-20T03:00:21.520Z,1032.1
2017-04-20T03:01:02.409Z,1032.08
2017-04-20T03:03:01.142Z,1032.09
2017-04-20T03:03:42.022Z,1032.1
2017-04-20T03:04:22.895Z,1032.07
2017-04-20T03:05:03.764Z,1032.09
2017-04-20T03:05:44.622Z,1032.1
2017-04-20T03:06:25.482Z,1032.1
2017-04-20T03:07:06.340Z,1032.07
2017-04-20T03:07:47.213Z,1032.01
2017-04-20T03:08:28.052Z,1032.02
2017-04-20T03:09:08.913Z,1032
2017-04-20T03:09:49.762Z,1032.05
2017-04-20T03:10:30.606Z,1032.07
2017-04-20T03:11:11.463Z,1032.04
2017-04-20T03:11:52.313Z,1032.05
2017-04-20T03:12:33.162Z,1032.04
2017-04-20T03:13:14.020Z,1032.03
2017-04-20T03:13:54.895Z,1032.02
2017-04-20T03:14:35.745Z,1032.02
2017-04-20T03:15:16.609Z,1032
2017-04-20T03:15:57.490Z,1032.03
2017-04-20T03:16:38.355Z,1031.98
2017-04-20T03:17:19.221Z,1031.99
2017-04-20T03:18:00.080Z,1032.03
2017-04-20T03:18:40.943Z,1031.98
2017-04-20T03:19:21.821Z,1031.95
2017-04-20T03:20:02.703Z,1031.97
2017-04-20T03:20:43.576Z,1031.96
2017-04-20T03:21:24.449Z,1031.97
2017-04-20T03:22:05.328Z,1031.97
2017-04-20T03:22:46.189Z,1031.97
2017-04-20T03:23:27.072Z,1031.95
2017-04-20T03:24:07.965Z,1031.96
2017-04-20T03:24:48.833Z,1031.99
2017-04-20T03:25:29.703Z,1031.94
2017-04-20T03:26:10.569Z,1031.99
2017-04-20T03:26:51.462Z,1031.96
2017-04-20T03:27:32.369Z,1031.98
2017-04-20T03:29:31.442Z,1031.94
2017-04-20T03:30:12.324Z,1031.91
2017-04-20T03:32:27.614Z,1031.93
2017-04-20T03:33:08.496Z,1031.92
2017-04-20T03:33:49.367Z,1031.93
2017-04-20T03:34:30.257Z,1031.88
2017-04-20T03:35:11.112Z,1031.93
2017-04-20T03:35:51.968Z,1031.85
2017-04-20T03:36:32.839Z,1031.85
2017-04-20T03:37:13.682Z,1031.87
2017-04-20T03:37:54.549Z,1031.87
2017-04-20T03:38:35.401Z,1031.85
2017-04-20T03:39:16.267Z,1031.86
2017-04-20T03:39:57.139Z,1031.8
2017-04-20T03:40:38.019Z,1031.81
2017-04-20T03:41:18.970Z,1031.82
2017-04-20T03:43:36.700Z,1031.78
2017-04-20T03:44:17.570Z,1031.78
2017-04-20T03:46:31.855Z,1031.32
2017-04-20T03:47:13.102Z,1031.81
2017-04-20T03:49:30.018Z,1031.83
2017-04-20T03:57:34.672Z,1031.8
2017-04-20T03:58:15.560Z,1031.83
2017-04-20T03:58:56.443Z,1031.83
2017-04-20T03:59:39.238Z,1031.88
2017-04-20T04:00:20.116Z,1031.86
2017-04-20T04:01:00.986Z,1031.86
2017-04-20T04:01:41.852Z,1031.9
2017-04-20T04:02:22.732Z,1031.88
2017-04-20T04:03:03.608Z,1031.89
2017-04-20T04:03:44.485Z,1031.88
2017-04-20T04:04:25.355Z,1031.89
2017-04-20T04:05:06.225Z,1031.93
2017-04-20T04:05:47.089Z,1031.9
2017-04-20T04:06:27.931Z,1031.9
2017-04-20T04:07:08.799Z,1031.94
2017-04-20T04:07:49.663Z,1031.95
2017-04-20T04:08:30.550Z,1031.96
2017-04-20T04:09:11.428Z,1031.95
2017-04-20T04:09:52.301Z,1032.02
2017-04-20T04:10:33.160Z,1032
2017-04-20T04:11:14.028Z,1032
2017-04-20T04:11:54.893Z,1032.01
2017-04-20T04:12:35.766Z,1032.06
2017-04-20T04:13:16.643Z,1032
2017-04-20T04:13:57.517Z,1032.03
2017-04-20T04:14:38.409Z,1032.03
2017-04-20T04:15:19.280Z,1032.02
2017-04-20T04:20:24.419Z,1032.09
2017-04-20T04:21:05.293Z,1032.07
2017-04-20T04:21:46.165Z,1032.09
2017-04-20T04:22:27.047Z,1032.09
2017-04-20T04:23:07.883Z,1032.09
2017-04-20T04:23:48.756Z,1032.12
2017-04-20T04:24:29.625Z,1032.15
2017-04-20T04:25:10.484Z,1032.17
2017-04-20T04:25:51.345Z,1032.16
2017-04-20T04:26:32.249Z,1032.2
2017-04-20T04:27:16.088Z,1032.15
2017-04-20T04:27:56.956Z,1032.19
2017-04-20T04:28:37.824Z,1032.14
2017-04-20T04:29:18.692Z,1032.12
2017-04-20T04:29:59.562Z,1032.12
2017-04-20T04:30:40.461Z,1032.13
2017-04-20T04:31:21.331Z,1032.14
2017-04-20T04:32:02.191Z,1032.15
2017-04-20T04:32:43.064Z,1032.16
2017-04-20T04:33:23.911Z,1032.15
2017-04-20T04:34:04.779Z,1032.14
2017-04-20T04:34:45.633Z,1032.18
2017-04-20T04:35:26.496Z,1032.2
2017-04-20T04:36:07.361Z,1032.14
2017-04-20T04:38:42.903Z,1032.21
2017-04-20T04:39:23.804Z,1032.25
2017-04-20T04:40:04.699Z,1032.21
2017-04-20T04:40:45.577Z,1032.23
2017-04-20T04:41:27.156Z,1032.22
2017-04-20T04:42:08.025Z,1032.25
2017-04-20T04:42:48.873Z,1032.25
2017-04-20T04:43:29.743Z,1032.26
2017-04-20T04:44:10.617Z,1032.22
2017-04-20T04:44:51.509Z,1032.14
2017-04-20T04:45:32.379Z,1032.17
2017-04-20T04:46:15.063Z,1032.15
2017-04-20T04:50:08.785Z,1032.18
2017-04-20T04:50:49.666Z,1032.2
2017-04-20T04:51:30.575Z,1032.19
2017-04-20T04:52:11.447Z,1032.14
2017-04-20T04:52:52.319Z,1032.11
2017-04-20T04:59:44.985Z,1032.25
2017-04-20T05:00:27.862Z,1032.22
2017-04-20T05:01:08.763Z,1032.2
2017-04-20T05:01:49.616Z,1032.18
2017-04-20T05:02:30.495Z,1032.21
2017-04-20T05:03:11.387Z,1032.18
2017-04-20T05:03:52.260Z,1032.23
2017-04-20T05:04:33.148Z,1032.23
2017-04-20T05:05:14.006Z,1032.31
2017-04-20T05:05:54.909Z,1032.27
2017-04-20T05:08:40.206Z,1032.34
2017-04-20T05:09:21.070Z,1032.32
2017-04-20T05:10:01.948Z,1032.28
2017-04-20T05:10:42.803Z,1032.3
2017-04-20T05:11:23.663Z,1032.28
2017-04-20T05:12:04.554Z,1032.27
2017-04-20T05:12:45.446Z,1032.3
2017-04-20T05:13:26.317Z,1032.26
2017-04-20T05:14:07.189Z,1032.24
2017-04-20T05:14:48.057Z,1032.25
2017-04-20T05:15:28.913Z,1032.27
2017-04-20T05:16:09.770Z,1032.23
2017-04-20T05:16:50.632Z,1032.25
2017-04-20T05:17:31.482Z,1032.24
2017-04-20T05:18:12.346Z,1032.24
2017-04-20T05:18:53.205Z,1032.25
2017-04-20T05:19:35.579Z,1032.23
2017-04-20T05:20:16.445Z,1032.21
2017-04-20T05:20:57.319Z,1032.22
2017-04-20T05:21:38.170Z,1032.22
2017-04-20T05:22:19.031Z,1032.22
2017-04-20T05:22:59.903Z,1032.22
2017-04-20T05:23:40.778Z,1032.19
2017-04-20T05:24:21.657Z,1032.22
2017-04-20T05:25:02.536Z,1032.2
2017-04-20T05:25:43.409Z,1032.23
2017-04-20T05:26:24.295Z,1032.26
2017-04-20T05:27:05.190Z,1032.22
2017-04-20T05:27:46.074Z,1032.25
2017-04-20T05:28:26.950Z,1032.24
2017-04-20T05:29:07.809Z,1032.23
2017-04-20T05:29:48.674Z,1032.26
2017-04-20T05:30:29.561Z,1032.27
2017-04-20T05:31:10.447Z,1032.3
2017-04-20T05:31:51.319Z,1032.29
2017-04-20T05:32:32.182Z,1032.33
2017-04-20T05:33:13.058Z,1032.31
2017-04-20T05:33:53.921Z,1032.31
2017-04-20T05:34:34.772Z,1032.31
2017-04-20T05:35:15.621Z,1032.33
2017-04-20T05:35:56.485Z,1032.3
2017-04-20T05:36:37.349Z,1032.34
2017-04-20T05:37:18.230Z,1032.34
2017-04-20T05:37:59.128Z,1032.31
2017-04-20T05:38:40.020Z,1032.32
2017-04-20T05:39:20.881Z,1032.33
2017-04-20T05:40:01.746Z,1032.33
2017-04-20T05:40:42.619Z,1032.36
2017-04-20T05:41:23.517Z,1032.33
2017-04-20T05:42:04.411Z,1032.34
2017-04-20T05:42:45.290Z,1032.33
2017-04-20T05:43:26.227Z,1032.32
2017-04-20T05:44:07.088Z,1032.37
2017-04-20T05:44:47.980Z,1032.35
2017-04-20T05:45:28.872Z,1032.32
2017-04-20T05:46:09.746Z,1032.33
2017-04-20T05:46:50.616Z,1032.33
2017-04-20T05:47:31.481Z,1032.33
2017-04-20T05:48:12.360Z,1032.3
2017-04-20T05:48:53.260Z,1032.32
2017-04-20T05:49:34.157Z,1032.34
2017-04-20T05:50:15.034Z,1032.32
2017-04-20T05:50:55.894Z,1032.36
2017-04-20T05:51:38.705Z,1032.37
2017-04-20T05:52:21.360Z,1032.36
2017-04-20T05:53:02.253Z,1032.4
2017-04-20T05:53:44.121Z,1032.36
2017-04-20T05:54:24.981Z,1032.38
2017-04-20T05:55:07.615Z,1032.34
2017-04-20T05:55:50.373Z,1032.39
2017-04-20T05:56:31.229Z,1032.35
2017-04-20T05:57:12.094Z,1032.37
2017-04-20T05:57:52.957Z,1032.32
2017-04-20T05:58:33.820Z,1032.34
2017-04-20T05:59:14.720Z,1032.35
2017-04-20T06:01:31.263Z,1032.4
2017-04-20T06:02:12.135Z,1032.36
2017-04-20T06:02:54.829Z,1032.33
2017-04-20T06:05:26.227Z,1032.37
2017-04-20T06:06:08.768Z,1032.35
2017-04-20T06:06:49.632Z,1032.39
2017-04-20T06:07:30.507Z,1032.4
2017-04-20T06:08:11.380Z,1032.39
2017-04-20T06:08:52.252Z,1032.37
2017-04-20T06:09:33.128Z,1032.42
2017-04-20T06:10:13.993Z,1032.42
2017-04-20T06:10:54.867Z,1032.41
2017-04-20T06:13:01.546Z,1032.41
2017-04-20T06:13:42.459Z,1032.41
2017-04-20T06:14:23.349Z,1032.4
2017-04-20T06:15:04.226Z,1032.44
2017-04-20T06:15:45.102Z,1032.43
2017-04-20T06:16:25.975Z,1032.42
2017-04-20T06:17:06.856Z,1032.45
2017-04-20T06:17:47.735Z,1032.42
2017-04-20T06:18:28.718Z,1032.49
2017-04-20T06:19:09.591Z,1032.49
2017-04-20T06:19:50.457Z,1032.46
2017-04-20T06:20:31.343Z,1032.47
2017-04-20T06:21:12.226Z,1032.52
2017-04-20T06:21:53.090Z,1032.44
2017-04-20T06:24:22.169Z,1032.48
2017-04-20T06:25:03.052Z,1032.46
2017-04-20T06:25:43.928Z,1032.47
2017-04-20T06:26:24.790Z,1032.49
2017-04-20T06:27:05.667Z,1032.49
2017-04-20T06:27:46.550Z,1032.49
2017-04-20T06:28:27.434Z,1032.49
2017-04-20T06:29:08.312Z,1032.46
2017-04-20T06:29:49.228Z,1032.45
2017-04-20T06:30:30.145Z,1032.45
2017-04-20T06:31:11.083Z,1032.48
2017-04-20T06:31:51.953Z,1032.5
2017-04-20T06:32:32.831Z,1032.49
2017-04-20T06:33:13.716Z,1032.52
2017-04-20T06:33:54.581Z,1032.5
2017-04-20T06:34:35.453Z,1032.48
2017-04-20T06:35:16.324Z,1032.48
2017-04-20T06:38:39.925Z,1032.46
2017-04-20T06:39:20.784Z,1032.44
2017-04-20T06:40:01.653Z,1032.47
2017-04-20T06:40:42.531Z,1032.43
2017-04-20T06:41:23.406Z,1032.42
2017-04-20T06:42:04.272Z,1032.45
2017-04-20T06:42:45.149Z,1032.43
2017-04-20T06:43:26.047Z,1032.44
2017-04-20T06:44:06.927Z,1032.43
2017-04-20T06:44:47.807Z,1032.47
2017-04-20T06:45:28.684Z,1032.43
2017-04-20T06:46:09.539Z,1032.46
2017-04-20T06:46:50.402Z,1032.46
2017-04-20T06:47:31.272Z,1032.46
2017-04-20T06:48:12.138Z,1032.48
2017-04-20T06:48:53.054Z,1032.51
2017-04-20T06:49:33.921Z,1032.5
2017-04-20T06:50:14.790Z,1032.49
2017-04-20T06:50:55.652Z,1032.5
2017-04-20T06:51:36.570Z,1032.49
2017-04-20T06:52:17.451Z,1032.49
2017-04-20T06:52:58.327Z,1032.5
2017-04-20T06:53:39.231Z,1032.51
2017-04-20T06:54:20.114Z,1032.47
2017-04-20T06:55:00.996Z,1032.51
2017-04-20T06:55:41.864Z,1032.45
2017-04-20T06:56:22.724Z,1032.47
2017-04-20T06:57:03.606Z,1032.49
2017-04-20T06:57:44.492Z,1032.45
2017-04-20T06:58:25.369Z,1032.48
2017-04-20T06:59:06.244Z,1032.51
2017-04-20T06:59:47.106Z,1032.51
2017-04-20T07:00:27.967Z,1032.52
2017-04-20T07:01:10.781Z,1032.52
2017-04-20T07:01:51.649Z,1032.53
2017-04-20T07:02:32.537Z,1032.54
2017-04-20T07:03:13.422Z,1032.49
2017-04-20T07:05:27.128Z,1032.52
2017-04-20T07:06:08.024Z,1032.51
2017-04-20T07:06:48.897Z,1032.53
2017-04-20T07:07:29.776Z,1032.54
2017-04-20T07:08:10.639Z,1032.54
2017-04-20T07:08:51.532Z,1032.54
2017-04-20T07:09:32.408Z,1032.55
2017-04-20T07:10:13.284Z,1032.56
2017-04-20T07:10:56.828Z,1032.54
2017-04-20T07:11:37.718Z,1032.52
2017-04-20T07:12:20.340Z,1032.57
2017-04-20T07:13:01.238Z,1032.59
2017-04-20T07:13:43.849Z,1032.56
2017-04-20T07:14:27.328Z,1032.57
2017-04-20T07:15:08.229Z,1032.59
2017-04-20T07:15:49.063Z,1032.55
2017-04-20T07:16:31.858Z,1032.53
2017-04-20T07:17:12.728Z,1032.55
2017-04-20T07:20:29.589Z,1032.53
2017-04-20T07:21:10.501Z,1032.52
2017-04-20T07:26:00.188Z,1032.62
2017-04-20T07:26:41.126Z,1032.61
2017-04-20T07:27:21.998Z,1032.67
2017-04-20T07:28:04.566Z,1032.62
2017-04-20T07:28:47.173Z,1032.68
2017-04-20T07:29:28.052Z,1032.73
2017-04-20T07:30:10.915Z,1032.8
2017-04-20T07:30:53.421Z,1032.77
2017-04-20T07:33:23.511Z,1032.98
2017-04-20T07:34:04.412Z,1033.01
2017-04-20T07:34:45.280Z,1033.05
2017-04-20T07:35:26.161Z,1033.17
2017-04-20T07:36:07.027Z,1033.27
2017-04-20T07:36:47.889Z,1033.34
2017-04-20T07:37:28.897Z,1033.34
2017-04-20T07:38:09.790Z,1033.36
2017-04-20T07:40:28.341Z,1033.47
2017-04-20T07:41:09.221Z,1033.35
2017-04-20T07:41:50.132Z,1033.44
2017-04-20T07:42:30.988Z,1032.68
2017-04-20T07:43:11.874Z,1033.7
2017-04-20T07:43:52.755Z,1033.73
2017-04-20T07:44:33.647Z,1033.66
2017-04-20T07:45:14.548Z,1033.69
2017-04-20T07:45:55.397Z,1033.71
2017-04-20T07:46:36.285Z,1033.74
2017-04-20T07:47:17.178Z,1033.8
2017-04-20T07:47:58.057Z,1033.81
2017-04-20T07:48:38.946Z,1033.45
2017-04-20T07:49:19.822Z,1033.6
2017-04-20T07:50:00.710Z,1033.66
2017-04-20T07:50:41.590Z,1033.89
2017-04-20T07:51:22.472Z,1033.92
2017-04-20T07:52:03.337Z,1033.91
2017-04-20T07:52:44.271Z,1033.73
2017-04-20T07:53:25.154Z,1033.57
2017-04-20T07:54:06.041Z,1033.6
2017-04-20T07:54:46.940Z,1033.79
2017-04-20T07:55:29.226Z,1033.76
2017-04-20T07:56:10.107Z,1033.72
2017-04-20T07:56:50.972Z,1033.66
2017-04-20T07:57:31.851Z,1033.57
2017-04-20T07:58:12.740Z,1033.59
2017-04-20T07:58:53.643Z,1033.59
2017-04-20T07:59:34.509Z,1033.55
2017-04-20T08:00:15.407Z,1033.53
2017-04-20T08:00:56.291Z,1033.47
2017-04-20T08:01:38.992Z,1033.48
2017-04-20T08:02:19.877Z,1033.49
2017-04-20T08:03:02.367Z,1033.47
2017-04-20T08:03:44.874Z,1033.44
2017-04-20T08:04:25.755Z,1033.45
2017-04-20T08:05:06.624Z,1033.46
2017-04-20T08:05:47.520Z,1033.45
2017-04-20T08:06:28.403Z,1033.43
2017-04-20T08:07:09.291Z,1033.43
2017-04-20T08:07:50.184Z,1033.29
2017-04-20T08:08:31.084Z,1033.15
2017-04-20T08:09:11.970Z,1033.15
2017-04-20T08:09:52.869Z,1033.25
2017-04-20T08:10:33.762Z,1033.32
2017-04-20T08:11:14.633Z,1033.32
2017-04-20T08:11:58.493Z,1033.34
2017-04-20T08:12:39.409Z,1033.38
2017-04-20T08:13:20.291Z,1033.38
2017-04-20T08:14:01.191Z,1033.42
2017-04-20T08:14:42.083Z,1033.41
2017-04-20T08:15:22.987Z,1033.38
2017-04-20T08:16:03.871Z,1033.39
2017-04-20T08:16:44.760Z,1033.31
2017-04-20T08:17:25.642Z,1033.27
2017-04-20T08:18:06.550Z,1033.34
2017-04-20T08:18:47.435Z,1033.32
2017-04-20T08:19:28.327Z,1033.3
2017-04-20T08:20:09.222Z,1033.3
2017-04-20T08:22:04.535Z,1033.1
2017-04-20T08:22:45.420Z,1033.04
2017-04-20T08:23:26.310Z,1033.07
2017-04-20T08:24:07.227Z,1033.09
2017-04-20T08:24:48.095Z,1033.14
2017-04-20T08:25:28.976Z,1033.16
2017-04-20T08:26:09.899Z,1033.19
2017-04-20T08:26:50.779Z,1033.21
2017-04-20T08:27:31.668Z,1033.18
2017-04-20T08:28:12.565Z,1033.14
2017-04-20T08:28:53.498Z,1033.15
2017-04-20T08:29:34.384Z,1033.08
2017-04-20T08:30:15.263Z,1033.16
2017-04-20T08:30:56.119Z,1032.99
2017-04-20T08:31:37.005Z,1032.92
2017-04-20T08:32:17.897Z,1033.05
2017-04-20T08:32:58.783Z,1032.98
2017-04-20T08:33:39.651Z,1032.79
2017-04-20T08:34:20.535Z,1032.64
2017-04-20T08:35:01.426Z,1032.6
2017-04-20T08:35:42.311Z,1032.49
2017-04-20T08:36:23.175Z,1032.4
2017-04-20T08:37:04.072Z,1032.37
2017-04-20T08:37:44.963Z,1032.37
2017-04-20T08:38:25.855Z,1032.32
2017-04-20T08:39:06.723Z,1032.35
2017-04-20T08:39:47.597Z,1032.28
2017-04-20T08:40:28.489Z,1032.29
2017-04-20T08:41:09.453Z,1032.31
2017-04-20T08:41:51.073Z,1032.28
2017-04-20T08:45:55.808Z,1032.28
2017-04-20T08:46:36.689Z,1032.29
2017-04-20T08:47:17.637Z,1032.3
2017-04-20T08:47:58.545Z,1032.28
2017-04-20T08:48:39.439Z,1032.32
2017-04-20T08:49:22.093Z,1032.29
2017-04-20T08:50:02.998Z,1032.26
2017-04-20T08:53:04.986Z,1032.32
2017-04-20T08:53:45.909Z,1032.33
2017-04-20T08:54:26.805Z,1032.3
2017-04-20T08:56:00.041Z,1032.3
2017-04-20T08:56:40.951Z,1032.26
2017-04-20T08:57:21.844Z,1032.27
2017-04-20T08:58:02.743Z,1032.34
2017-04-20T08:58:43.616Z,1032.3
2017-04-20T08:59:24.497Z,1032.32
2017-04-20T09:00:05.391Z,1032.31
2017-04-20T09:00:46.282Z,1032.31
2017-04-20T09:01:27.163Z,1032.36
2017-04-20T09:02:08.052Z,1032.33
2017-04-20T09:02:48.922Z,1032.44
2017-04-20T09:03:29.810Z,1032.38
2017-04-20T09:04:10.690Z,1032.33
2017-04-20T09:04:51.588Z,1032.24
2017-04-20T09:05:32.477Z,1032.31
2017-04-20T09:06:13.368Z,1032.26
2017-04-20T09:06:54.325Z,1032.35
2017-04-20T09:07:35.174Z,1032.26
2017-04-20T09:08:16.064Z,1032.21
2017-04-20T09:08:56.950Z,1032.22
2017-04-20T09:09:37.835Z,1032.3
2017-04-20T09:10:18.723Z,1032.28
2017-04-20T09:10:59.608Z,1032.2
2017-04-20T09:11:40.516Z,1032.23
2017-04-20T09:12:21.405Z,1032.24
2017-04-20T09:13:02.306Z,1032.27
2017-04-20T09:13:43.194Z,1032.31
2017-04-20T09:14:24.070Z,1032.33
2017-04-20T09:15:04.963Z,1032.28
2017-04-20T09:15:45.849Z,1032.29
2017-04-20T09:16:26.727Z,1032.32
2017-04-20T09:17:07.601Z,1032.3
2017-04-20T09:17:48.569Z,1032.3
2017-04-20T09:18:31.244Z,1032.28
2017-04-20T09:19:12.129Z,1032.25
2017-04-20T09:19:53.015Z,1032.28
2017-04-20T09:20:33.934Z,1032.2
2017-04-20T09:21:14.775Z,1032.29
2017-04-20T09:21:55.650Z,1032.3
2017-04-20T09:22:36.542Z,1032.26
2017-04-20T09:23:17.443Z,1032.31